Time;durP1;ratioP1;P1;durP2;ratioP2;P2;SDS_P1;SDS_P2;PMS_P1;PMS_P2;Temp;Humidity;BMP_temperature;BMP_pressure;BME280_temperature;BME280_humidity;BME280_pressure;Samples;Min_cycle;Max_cycle;Signal;HPM_P1;HPM_P2
2022/08/25 00:00:33;;;;;;;15.32;9.73;;;16.50;99.90;;;;;;5073905;28;20020;-51
2022/08/25 00:02:58;;;;;;;10.65;9.15;;;16.50;99.90;;;;;;5074386;28;20364;-52
2022/08/25 00:05:26;;;;;;;10.20;8.77;;;16.50;99.90;;;;;;5074160;28;20033;-53
2022/08/25 00:07:52;;;;;;;12.10;9.65;;;16.40;99.90;;;;;;5074022;28;20381;-51
2022/08/25 00:10:19;;;;;;;13.20;10.32;;;16.30;99.90;;;;;;5074018;28;20025;-52
2022/08/25 00:12:45;;;;;;;14.23;9.25;;;16.20;99.90;;;;;;5073781;28;20056;-52
2022/08/25 00:15:11;;;;;;;10.60;9.45;;;16.20;99.90;;;;;;5073867;28;20101;-51
2022/08/25 00:17:36;;;;;;;17.77;9.75;;;16.20;99.90;;;;;;5073897;28;20021;-51
2022/08/25 00:20:04;;;;;;;10.98;9.25;;;16.10;99.90;;;;;;5073822;28;20086;-52
2022/08/25 00:22:30;;;;;;;11.95;9.23;;;16.10;99.90;;;;;;5073859;28;20024;-51
2022/08/25 00:24:56;;;;;;;14.75;9.57;;;16.10;99.90;;;;;;5073995;28;20079;-54
2022/08/25 00:27:21;;;;;;;13.82;10.48;;;16.00;99.90;;;;;;5073836;28;20086;-51
2022/08/25 00:29:47;;;;;;;16.05;10.68;;;16.00;99.90;;;;;;5073663;28;20021;-55
2022/08/25 00:32:14;;;;;;;17.33;9.77;;;16.10;99.90;;;;;;5073521;28;20052;-52
2022/08/25 00:34:40;;;;;;;13.55;9.60;;;16.10;99.90;;;;;;5073648;28;20460;-55
2022/08/25 00:37:08;;;;;;;13.07;9.93;;;16.00;99.90;;;;;;5073567;28;20032;-53
2022/08/25 00:39:34;;;;;;;13.32;9.65;;;16.10;99.90;;;;;;5073504;28;20020;-52
2022/08/25 00:42:00;;;;;;;12.95;9.82;;;16.10;99.90;;;;;;5073690;28;20402;-53
2022/08/25 00:44:28;;;;;;;16.38;10.65;;;16.00;99.90;;;;;;5073387;28;20032;-52
2022/08/25 00:46:56;;;;;;;21.33;10.73;;;16.00;99.90;;;;;;5073649;28;20054;-53
2022/08/25 00:50:00;;;;;;;16.42;10.13;;;15.90;99.90;;;;;;5073380;28;20016;-51
2022/08/25 00:52:33;;;;;;;15.15;11.50;;;15.90;99.90;;;;;;5055702;28;20048;-52
2022/08/25 00:55:17;;;;;;;15.57;11.07;;;15.80;99.90;;;;;;5072071;28;20467;-52
2022/08/25 00:57:47;;;;;;;12.43;10.55;;;15.90;99.90;;;;;;5073453;28;20035;-54
2022/08/25 01:00:18;;;;;;;15.77;10.63;;;15.90;99.90;;;;;;5071804;28;20413;-55
2022/08/25 01:02:44;;;;;;;19.02;10.80;;;15.90;99.90;;;;;;5072636;28;20553;-53
2022/08/25 01:05:11;;;;;;;13.32;10.88;;;15.90;99.90;;;;;;5080747;28;20075;-51
2022/08/25 01:07:37;;;;;;;13.32;10.60;;;16.00;99.90;;;;;;5072924;28;20036;-51
2022/08/25 01:10:06;;;;;;;17.77;11.88;;;16.00;99.90;;;;;;5073156;28;20036;-53
2022/08/25 01:12:33;;;;;;;14.75;10.05;;;16.00;99.90;;;;;;5072923;28;20050;-52
2022/08/25 01:15:00;;;;;;;15.55;10.48;;;16.00;99.90;;;;;;5073058;28;20104;-53
2022/08/25 01:17:37;;;;;;;21.42;11.05;;;16.00;99.90;;;;;;5073016;28;20108;-53
2022/08/25 01:20:04;;;;;;;19.20;11.65;;;16.00;99.90;;;;;;5072957;28;20095;-51
2022/08/25 01:22:31;;;;;;;13.27;10.13;;;16.00;99.90;;;;;;5071351;28;20020;-54
2022/08/25 01:25:04;;;;;;;15.13;11.13;;;16.00;99.90;;;;;;5072868;28;20025;-51
2022/08/25 01:27:30;;;;;;;19.63;11.88;;;16.00;99.90;;;;;;5072544;28;20557;-52
2022/08/25 01:29:56;;;;;;;15.27;11.15;;;16.10;99.90;;;;;;5072132;28;20036;-53
2022/08/25 01:32:22;;;;;;;16.30;10.98;;;16.10;99.90;;;;;;5072454;28;20029;-51
2022/08/25 01:34:48;;;;;;;19.15;12.20;;;16.10;99.90;;;;;;5072655;28;20036;-52
2022/08/25 01:37:17;;;;;;;15.88;11.80;;;16.10;99.90;;;;;;5071093;28;20127;-52
2022/08/25 01:39:43;;;;;;;20.35;11.27;;;16.10;99.90;;;;;;5072458;28;20025;-51
2022/08/25 01:42:38;;;;;;;23.33;11.85;;;16.00;99.90;;;;;;5072429;28;20350;-51
2022/08/25 01:45:04;;;;;;;14.15;11.48;;;16.10;99.90;;;;;;5056058;28;20045;-51
2022/08/25 01:47:31;;;;;;;15.80;11.18;;;16.00;99.90;;;;;;5072469;28;20341;-52
2022/08/25 01:49:56;;;;;;;13.20;11.63;;;16.00;99.90;;;;;;5072429;28;20499;-52
2022/08/25 01:52:43;;;;;;;16.05;11.32;;;15.90;99.90;;;;;;5072050;28;20059;-51
2022/08/25 01:55:09;;;;;;;16.58;10.05;;;15.80;99.90;;;;;;5072071;28;20020;-51
2022/08/25 01:57:35;;;;;;;16.85;10.52;;;15.80;99.90;;;;;;5070939;28;20028;-51
2022/08/25 02:00:01;;;;;;;16.45;11.30;;;15.60;99.90;;;;;;5072221;28;20055;-52
2022/08/25 02:02:27;;;;;;;12.88;9.43;;;15.50;99.90;;;;;;5072008;28;20024;-52
2022/08/25 02:04:52;;;;;;;12.20;9.38;;;15.50;99.90;;;;;;5072123;28;20124;-51
2022/08/25 02:07:19;;;;;;;11.20;9.13;;;15.40;99.90;;;;;;5071755;28;20485;-51
2022/08/25 02:09:44;;;;;;;11.13;9.32;;;15.20;99.90;;;;;;5071845;28;20065;-55
2022/08/25 02:12:11;;;;;;;20.10;10.55;;;15.10;99.90;;;;;;5071717;28;20052;-51
2022/08/25 02:14:37;;;;;;;11.75;9.52;;;15.10;99.90;;;;;;5071990;28;20017;-52
2022/08/25 02:17:04;;;;;;;11.18;9.18;;;15.10;99.90;;;;;;5071912;28;20027;-51
2022/08/25 02:19:30;;;;;;;17.15;10.60;;;15.00;99.90;;;;;;5071771;28;20024;-51
2022/08/25 02:21:57;;;;;;;14.82;10.30;;;15.00;99.90;;;;;;5071868;28;20031;-53
2022/08/25 02:24:23;;;;;;;16.85;9.93;;;15.10;99.90;;;;;;5071668;28;20025;-51
2022/08/25 02:26:49;;;;;;;14.88;10.43;;;15.10;99.90;;;;;;5071546;28;20048;-51
2022/08/25 02:29:15;;;;;;;13.05;10.48;;;15.10;99.90;;;;;;5071881;28;20059;-54
2022/08/25 02:31:41;;;;;;;12.35;9.65;;;15.10;99.90;;;;;;5071713;28;20029;-51
2022/08/25 02:34:08;;;;;;;13.85;9.90;;;15.10;99.90;;;;;;5071515;28;20025;-52
2022/08/25 02:36:34;;;;;;;15.60;11.00;;;15.10;99.90;;;;;;5071787;28;20494;-51
2022/08/25 02:39:00;;;;;;;13.02;10.90;;;15.10;99.90;;;;;;5071682;28;20432;-52
2022/08/25 02:41:27;;;;;;;10.13;9.02;;;15.10;99.90;;;;;;5070362;28;20115;-52
2022/08/25 02:43:54;;;;;;;15.00;11.52;;;15.10;99.90;;;;;;5070227;28;20490;-51
2022/08/25 02:46:20;;;;;;;14.48;10.98;;;15.00;99.90;;;;;;5071298;28;20047;-51
2022/08/25 02:48:46;;;;;;;12.25;9.38;;;14.90;99.90;;;;;;5071623;28;20028;-51
2022/08/25 02:51:13;;;;;;;14.55;9.75;;;14.80;99.90;;;;;;5071239;28;20107;-52
2022/08/25 02:53:41;;;;;;;16.55;9.13;;;14.70;99.90;;;;;;5071452;28;20028;-52
2022/08/25 02:56:08;;;;;;;15.68;8.93;;;14.70;99.90;;;;;;5071343;28;20052;-52
2022/08/25 02:58:35;;;;;;;17.08;9.23;;;14.60;99.90;;;;;;5069923;28;20029;-53
2022/08/25 03:01:06;;;;;;;13.63;10.13;;;14.60;99.90;;;;;;5071563;28;20023;-53
2022/08/25 03:03:32;;;;;;;18.92;10.10;;;14.50;99.90;;;;;;5071243;28;20394;-51
2022/08/25 03:05:58;;;;;;;13.68;9.32;;;14.50;99.90;;;;;;5069969;28;20056;-51
2022/08/25 03:08:24;;;;;;;9.52;8.43;;;14.50;99.90;;;;;;5071114;28;20111;-51
2022/08/25 03:10:50;;;;;;;13.80;8.80;;;14.40;99.90;;;;;;5071068;28;20111;-50
2022/08/25 03:13:16;;;;;;;13.13;9.30;;;14.40;99.90;;;;;;5071075;28;20043;-51
2022/08/25 03:15:44;;;;;;;14.00;9.40;;;14.50;99.90;;;;;;5071223;28;20017;-52
2022/08/25 03:18:10;;;;;;;14.00;10.15;;;14.50;99.90;;;;;;5071036;28;20064;-51
2022/08/25 03:20:37;;;;;;;14.00;9.80;;;14.50;99.90;;;;;;5071142;28;20368;-52
2022/08/25 03:23:05;;;;;;;12.40;10.10;;;14.50;99.90;;;;;;5069680;28;20544;-51
2022/08/25 03:28:16;;;;;;;12.93;10.07;;;14.50;99.90;;;;;;5071023;28;20036;-51
2022/08/25 03:30:43;;;;;;;12.52;10.07;;;14.50;99.90;;;;;;5071289;28;20505;-51
2022/08/25 03:33:09;;;;;;;14.75;10.15;;;14.50;99.90;;;;;;5070843;28;20055;-52
2022/08/25 03:35:34;;;;;;;13.93;9.50;;;14.50;99.90;;;;;;5071095;28;20024;-51
2022/08/25 03:38:00;;;;;;;15.25;10.02;;;14.50;99.90;;;;;;5070870;28;20181;-52
2022/08/25 03:40:26;;;;;;;11.95;10.27;;;14.60;99.90;;;;;;5070800;28;20618;-52
2022/08/25 03:42:55;;;;;;;13.63;9.55;;;14.50;99.90;;;;;;5071085;28;20361;-50
2022/08/25 03:45:22;;;;;;;21.25;10.05;;;14.60;99.90;;;;;;5070810;28;20069;-52
2022/08/25 03:47:52;;;;;;;14.70;10.52;;;14.60;99.90;;;;;;5070725;28;20101;-53
2022/08/25 03:50:19;;;;;;;12.27;10.73;;;14.50;99.90;;;;;;5070870;28;20033;-50
2022/08/25 03:52:54;;;;;;;13.30;10.82;;;14.50;99.90;;;;;;5071551;28;20028;-52
2022/08/25 03:55:21;;;;;;;20.05;10.73;;;14.50;99.90;;;;;;5074451;28;20028;-51
2022/08/25 03:57:47;;;;;;;22.02;11.38;;;14.40;99.90;;;;;;5074453;28;20016;-52
2022/08/25 04:00:13;;;;;;;14.90;10.35;;;14.50;99.90;;;;;;5074331;28;20409;-51
2022/08/25 04:02:40;;;;;;;17.55;9.85;;;14.50;99.90;;;;;;5074426;28;20533;-51
2022/08/25 04:05:06;;;;;;;17.52;11.00;;;14.50;99.90;;;;;;5074487;28;20490;-50
2022/08/25 04:07:32;;;;;;;21.23;10.93;;;14.40;99.90;;;;;;5074013;28;20431;-52
2022/08/25 04:09:58;;;;;;;13.25;11.00;;;14.50;99.90;;;;;;5074318;28;20073;-52
2022/08/25 04:12:24;;;;;;;16.38;10.85;;;14.50;99.90;;;;;;5073980;28;20375;-52
2022/08/25 04:14:50;;;;;;;19.00;11.40;;;14.50;99.90;;;;;;5074079;28;20031;-51
2022/08/25 04:17:16;;;;;;;16.00;11.00;;;14.50;99.90;;;;;;5073889;28;20027;-51
2022/08/25 04:19:42;;;;;;;18.25;12.15;;;14.50;99.90;;;;;;5074227;28;20016;-50
2022/08/25 04:22:07;;;;;;;14.23;11.13;;;14.50;99.90;;;;;;5073952;28;20543;-50
2022/08/25 04:24:33;;;;;;;19.88;10.65;;;14.50;99.90;;;;;;5074039;28;20025;-51
2022/08/25 04:26:59;;;;;;;13.73;11.07;;;14.50;99.90;;;;;;5073956;28;20726;-52
2022/08/25 04:29:25;;;;;;;23.42;11.57;;;14.50;99.90;;;;;;5072564;28;20028;-52
2022/08/25 04:31:52;;;;;;;13.15;10.27;;;14.60;99.90;;;;;;5072539;28;20017;-53
2022/08/25 04:34:20;;;;;;;16.52;10.90;;;14.60;99.90;;;;;;5072497;28;20364;-54
2022/08/25 04:36:46;;;;;;;23.83;11.60;;;14.70;99.90;;;;;;5072589;28;20025;-52
2022/08/25 04:39:12;;;;;;;17.67;11.00;;;14.60;99.90;;;;;;5072405;28;20021;-51
2022/08/25 04:41:38;;;;;;;20.27;12.98;;;14.60;99.90;;;;;;5072596;28;20040;-52
2022/08/25 04:44:05;;;;;;;15.80;11.77;;;14.60;99.90;;;;;;5072345;28;20475;-52
2022/08/25 04:46:32;;;;;;;16.13;11.18;;;14.70;99.90;;;;;;5072359;28;20019;-51
2022/08/25 04:48:59;;;;;;;10.40;9.18;;;14.70;99.90;;;;;;5072319;28;20155;-51
2022/08/25 04:51:28;;;;;;;14.68;10.57;;;14.70;99.90;;;;;;5071832;28;20039;-53
2022/08/25 04:53:57;;;;;;;12.80;9.80;;;14.70;99.90;;;;;;5072257;28;20024;-51
2022/08/25 04:56:26;;;;;;;10.80;9.25;;;14.80;99.90;;;;;;5071982;28;20032;-54
2022/08/25 04:58:53;;;;;;;9.48;8.48;;;14.90;99.90;;;;;;5072037;28;20467;-52
2022/08/25 05:01:21;;;;;;;8.77;7.88;;;15.00;99.90;;;;;;5071817;28;20026;-51
2022/08/25 05:03:54;;;;;;;10.55;9.13;;;14.90;99.90;;;;;;5071423;28;20020;-51
2022/08/25 05:06:20;;;;;;;11.13;8.43;;;14.80;99.90;;;;;;5070142;28;20032;-53
2022/08/25 05:08:46;;;;;;;12.27;8.48;;;14.90;99.90;;;;;;5071735;28;20044;-52
2022/08/25 05:11:18;;;;;;;14.80;9.13;;;14.80;99.90;;;;;;5071573;28;20105;-51
2022/08/25 05:13:46;;;;;;;12.23;9.82;;;14.80;99.90;;;;;;5071987;28;20390;-52
2022/08/25 05:16:12;;;;;;;11.52;8.80;;;14.80;99.90;;;;;;5071923;28;20028;-50
2022/08/25 05:18:38;;;;;;;14.90;10.07;;;14.80;99.90;;;;;;5071589;28;20024;-51
2022/08/25 05:21:09;;;;;;;13.23;9.50;;;14.90;99.90;;;;;;5071242;28;20050;-52
2022/08/25 05:23:35;;;;;;;12.63;9.60;;;15.00;99.90;;;;;;5071563;28;20028;-51
2022/08/25 05:26:06;;;;;;;13.50;10.52;;;15.20;99.90;;;;;;5071638;28;20078;-51
2022/08/25 05:28:32;;;;;;;13.25;11.25;;;15.30;99.90;;;;;;5071506;28;20016;-54
2022/08/25 05:31:00;;;;;;;11.40;9.80;;;15.30;99.90;;;;;;5071382;28;20012;-51
2022/08/25 05:33:26;;;;;;;14.55;9.80;;;15.30;99.90;;;;;;5071057;28;20028;-51
2022/08/25 05:35:52;;;;;;;12.32;10.52;;;15.50;99.90;;;;;;5069954;28;20016;-53
2022/08/25 05:38:18;;;;;;;10.88;9.55;;;15.50;99.90;;;;;;5071150;28;20361;-51
2022/08/25 05:40:44;;;;;;;15.40;10.00;;;15.60;99.90;;;;;;5071332;28;20099;-51
2022/08/25 05:43:11;;;;;;;21.17;11.80;;;15.60;99.90;;;;;;5071051;28;20103;-52
2022/08/25 05:45:36;;;;;;;18.00;11.30;;;15.70;99.90;;;;;;5071161;28;20017;-51
2022/08/25 05:48:02;;;;;;;17.33;11.80;;;15.80;99.90;;;;;;5071050;28;20112;-51
2022/08/25 05:50:28;;;;;;;12.80;10.98;;;16.00;99.90;;;;;;5070997;28;20028;-52
2022/08/25 05:52:54;;;;;;;16.02;11.07;;;16.10;99.90;;;;;;5070931;28;20028;-53
2022/08/25 05:55:20;;;;;;;33.17;10.85;;;16.20;99.90;;;;;;5070863;28;20029;-52
2022/08/25 05:57:46;;;;;;;14.38;12.32;;;16.40;99.90;;;;;;5070888;28;20024;-53
2022/08/25 06:00:12;;;;;;;18.70;12.00;;;16.50;99.90;;;;;;5070940;28;20021;-52
2022/08/25 06:02:40;;;;;;;19.95;13.88;;;16.60;99.90;;;;;;5070888;28;20031;-54
2022/08/25 06:05:07;;;;;;;16.13;12.70;;;16.70;99.90;;;;;;5070751;28;20032;-51
2022/08/25 06:07:32;;;;;;;19.58;14.38;;;16.80;99.90;;;;;;5070676;28;20071;-52
2022/08/25 06:09:58;;;;;;;18.30;13.13;;;16.90;99.90;;;;;;5076038;28;20067;-53
2022/08/25 06:12:24;;;;;;;16.63;13.98;;;17.00;99.90;;;;;;5089222;28;20036;-53
2022/08/25 06:14:50;;;;;;;18.90;12.63;;;17.00;99.90;;;;;;5092157;28;20024;-52
2022/08/25 06:17:16;;;;;;;16.15;12.38;;;17.10;99.90;;;;;;5086659;28;20031;-51
2022/08/25 06:19:42;;;;;;;19.20;13.10;;;17.20;99.90;;;;;;5071794;28;20024;-53
2022/08/25 06:22:08;;;;;;;14.13;11.30;;;17.20;99.90;;;;;;5071700;28;20025;-55
2022/08/25 06:24:33;;;;;;;13.18;10.75;;;17.40;99.90;;;;;;5071786;28;20044;-52
2022/08/25 06:26:59;;;;;;;13.95;11.95;;;17.60;99.90;;;;;;5086271;28;20040;-52
2022/08/25 06:29:25;;;;;;;20.17;11.00;;;17.70;99.90;;;;;;5086611;28;20055;-54
2022/08/25 06:31:51;;;;;;;17.90;11.38;;;17.80;99.90;;;;;;5071410;28;20028;-52
2022/08/25 06:34:18;;;;;;;17.58;12.10;;;17.90;99.90;;;;;;5071209;28;20099;-52
2022/08/25 06:36:44;;;;;;;12.43;10.52;;;18.10;99.90;;;;;;5072456;28;20024;-57
2022/08/25 06:39:09;;;;;;;14.55;11.32;;;18.20;99.90;;;;;;5074111;28;20017;-56
2022/08/25 06:41:38;;;;;;;13.80;11.48;;;18.20;99.90;;;;;;5070868;28;20046;-52
2022/08/25 06:44:09;;;;;;;14.35;11.32;;;18.30;99.90;;;;;;5071946;28;20498;-56
2022/08/25 06:46:35;;;;;;;10.93;9.07;;;18.50;99.90;;;;;;5070519;28;20043;-55
2022/08/25 06:49:01;;;;;;;13.15;9.35;;;18.80;99.90;;;;;;5070637;28;20054;-55
2022/08/25 06:51:27;;;;;;;12.00;9.55;;;19.00;99.90;;;;;;5070447;28;20021;-52
2022/08/25 06:53:53;;;;;;;10.60;8.57;;;19.20;99.90;;;;;;5070558;28;20082;-52
2022/08/25 06:56:20;;;;;;;13.90;9.60;;;19.40;99.90;;;;;;5073600;28;20093;-55
2022/08/25 06:58:47;;;;;;;12.60;8.68;;;19.60;99.90;;;;;;5070523;28;20029;-54
2022/08/25 07:01:22;;;;;;;10.45;7.60;;;19.70;99.90;;;;;;5070335;28;20027;-55
2022/08/25 07:03:49;;;;;;;11.07;8.85;;;19.80;99.90;;;;;;5067116;28;20025;-53
2022/08/25 07:06:17;;;;;;;11.15;7.72;;;20.00;99.90;;;;;;5070167;28;20020;-54
2022/08/25 07:08:43;;;;;;;11.63;7.22;;;20.10;99.90;;;;;;5070087;28;20116;-52
2022/08/25 07:11:10;;;;;;;9.82;7.28;;;20.00;99.90;;;;;;5070444;28;20108;-53
2022/08/25 07:13:37;;;;;;;9.15;8.25;;;20.10;99.90;;;;;;5070495;28;20029;-53
2022/08/25 07:16:04;;;;;;;15.75;8.32;;;20.20;99.90;;;;;;5070919;28;20532;-52
2022/08/25 07:18:30;;;;;;;12.60;8.50;;;20.30;99.90;;;;;;5071165;28;20071;-52
2022/08/25 07:20:57;;;;;;;9.75;8.20;;;20.40;99.90;;;;;;5071280;28;20379;-53
2022/08/25 07:23:23;;;;;;;9.82;8.45;;;20.50;99.90;;;;;;5072152;28;20119;-52
2022/08/25 07:25:49;;;;;;;9.45;8.02;;;20.60;99.90;;;;;;5084942;28;20024;-53
2022/08/25 07:28:16;;;;;;;12.95;8.77;;;20.80;99.90;;;;;;5092897;28;20479;-53
2022/08/25 07:30:42;;;;;;;10.35;7.63;;;20.90;99.90;;;;;;5095248;28;20023;-55
2022/08/25 07:33:08;;;;;;;14.40;9.45;;;20.90;99.90;;;;;;5095243;28;20024;-56
2022/08/25 07:35:36;;;;;;;14.40;9.75;;;20.90;99.90;;;;;;5082914;28;20044;-52
2022/08/25 07:38:02;;;;;;;11.10;8.98;;;21.00;99.90;;;;;;5074937;28;20058;-53
2022/08/25 07:40:31;;;;;;;13.07;10.35;;;21.00;99.90;;;;;;5074579;28;20032;-56
2022/08/25 07:42:59;;;;;;;11.70;9.43;;;21.00;99.90;;;;;;5074860;28;20035;-53
2022/08/25 07:45:30;;;;;;;19.20;10.43;;;21.10;99.90;;;;;;5084611;28;20367;-56
2022/08/25 07:48:02;;;;;;;14.50;11.27;;;21.00;99.90;;;;;;5095005;28;20084;-55
2022/08/25 07:50:30;;;;;;;14.02;10.23;;;21.00;99.90;;;;;;5094877;28;20043;-52
2022/08/25 07:52:57;;;;;;;17.80;11.00;;;21.10;99.90;;;;;;5094877;28;20027;-56
2022/08/25 07:55:25;;;;;;;35.38;25.67;;;21.30;99.90;;;;;;5084605;28;20028;-54
2022/08/25 07:57:52;;;;;;;17.00;13.32;;;21.40;99.90;;;;;;5074501;28;20329;-55
2022/08/25 08:00:19;;;;;;;20.60;11.85;;;21.50;99.90;;;;;;5074231;28;20051;-55
2022/08/25 08:02:45;;;;;;;15.35;10.63;;;21.60;99.90;;;;;;5074557;28;20033;-55
2022/08/25 08:05:13;;;;;;;20.45;11.25;;;21.80;99.90;;;;;;5082123;28;20035;-55
2022/08/25 08:07:39;;;;;;;28.15;12.07;;;21.90;99.90;;;;;;5092405;28;20051;-52
2022/08/25 08:10:07;;;;;;;24.40;12.45;;;22.00;99.90;;;;;;5094526;28;20028;-56
2022/08/25 08:12:34;;;;;;;24.38;11.85;;;22.00;99.90;;;;;;5094319;28;20028;-55
2022/08/25 08:15:00;;;;;;;16.23;11.77;;;22.10;99.90;;;;;;5085468;28;20020;-57
2022/08/25 08:17:26;;;;;;;18.17;11.70;;;22.40;99.90;;;;;;5074039;28;20052;-56
2022/08/25 08:19:52;;;;;;;23.75;12.38;;;22.40;99.90;;;;;;5074187;28;20048;-56
2022/08/25 08:22:18;;;;;;;27.40;11.68;;;22.50;99.90;;;;;;5073993;28;20029;-53
2022/08/25 08:24:44;;;;;;;25.17;12.75;;;22.60;99.90;;;;;;5079975;28;20028;-54
2022/08/25 08:27:12;;;;;;;30.25;12.45;;;22.70;99.90;;;;;;5094081;28;20035;-56
2022/08/25 08:29:39;;;;;;;29.55;13.57;;;22.80;99.90;;;;;;5094333;28;20396;-53
2022/08/25 08:32:08;;;;;;;28.15;12.25;;;22.80;99.90;;;;;;5094109;28;20059;-55
2022/08/25 08:34:34;;;;;;;24.77;13.27;;;23.10;99.90;;;;;;5092301;28;20024;-56
2022/08/25 08:37:00;;;;;;;31.77;12.13;;;22.90;99.90;;;;;;5093850;28;20103;-52
2022/08/25 08:39:27;;;;;;;26.10;13.27;;;23.00;99.90;;;;;;5093514;28;20027;-52
2022/08/25 08:42:16;;;;;;;30.60;13.05;;;23.00;99.90;;;;;;5093811;28;20020;-55
2022/08/25 08:44:44;;;;;;;22.67;12.80;;;23.10;99.90;;;;;;5085595;28;20024;-55
2022/08/25 08:47:28;;;;;;;27.80;12.35;;;23.50;99.90;;;;;;5073504;28;20032;-54
2022/08/25 08:49:59;;;;;;;;;;;23.70;99.90;;;;;;5072767;28;20024;-55
2022/08/25 08:52:48;;;;;;;35.15;14.93;;;24.20;99.90;;;;;;5073522;28;19931;-56
2022/08/25 08:55:35;;;;;;;34.55;14.45;;;24.40;99.90;;;;;;5085568;28;20020;-54
2022/08/25 08:58:09;;;;;;;34.35;13.07;;;24.50;99.90;;;;;;5092227;28;20020;-54
2022/08/25 09:00:51;;;;;;;33.22;13.23;;;24.70;99.90;;;;;;5093434;28;20077;-55
2022/08/25 09:03:35;;;;;;;29.10;13.25;;;24.60;99.90;;;;;;5093545;28;20028;-55
2022/08/25 09:06:06;;;;;;;41.67;14.70;;;24.70;99.90;;;;;;5074491;28;20086;-54
2022/08/25 09:08:32;;;;;;;47.75;15.07;;;24.40;99.90;;;;;;5076195;28;20039;-52
2022/08/25 09:11:16;;;;;;;46.92;14.70;;;24.10;99.90;;;;;;5091919;28;20031;-55
2022/08/25 09:14:02;;;;;;;29.00;14.43;;;24.20;99.90;;;;;;5093395;28;20016;-54
2022/08/25 09:16:54;;;;;;;41.85;14.38;;;24.60;99.90;;;;;;5078268;28;20034;-56
2022/08/25 09:19:40;;;;;;;32.97;14.77;;;24.80;99.90;;;;;;5072905;28;20045;-56
2022/08/25 09:22:30;;;;;;;34.40;15.43;;;24.90;99.90;;;;;;5072953;28;20035;-55
2022/08/25 09:25:20;;;;;;;41.58;15.13;;;24.70;99.90;;;;;;5073779;28;20033;-56
2022/08/25 09:27:52;;;;;;;41.10;15.25;;;24.50;99.90;;;;;;5073341;28;20036;-55
2022/08/25 09:30:20;;;;;;;44.70;15.23;;;24.30;99.90;;;;;;5072564;28;20116;-55
2022/08/25 09:32:58;;;;;;;40.78;14.20;;;24.40;99.90;;;;;;5072529;28;20021;-54
2022/08/25 09:35:28;;;;;;;42.70;13.55;;;24.70;99.90;;;;;;5083925;28;20024;-56
2022/08/25 09:37:56;;;;;;;45.08;15.23;;;25.40;99.90;;;;;;5092624;28;20023;-54
2022/08/25 09:40:23;;;;;;;35.08;13.48;;;25.40;99.90;;;;;;5092611;28;20021;-54
2022/08/25 09:42:53;;;;;;;50.40;12.88;;;25.60;99.90;;;;;;5092808;28;20016;-56
2022/08/25 09:45:42;;;;;;;38.67;13.65;;;25.50;99.90;;;;;;5082206;28;20028;-56
2022/08/25 09:48:22;;;;;;;38.97;12.98;;;25.40;99.90;;;;;;5071791;28;20494;-55
2022/08/25 09:50:50;;;;;;;35.05;13.32;;;25.50;99.90;;;;;;5071345;28;20034;-54
2022/08/25 09:53:16;;;;;;;47.03;13.57;;;25.60;99.90;;;;;;5071544;28;20451;-56
2022/08/25 09:55:45;;;;;;;43.67;13.73;;;25.70;99.90;;;;;;5071730;28;20025;-53
2022/08/25 09:58:22;;;;;;;29.55;13.27;;;26.00;99.90;;;;;;5071778;28;20425;-54
2022/08/25 10:01:05;;;;;;;48.92;13.43;;;26.10;99.90;;;;;;5071766;28;20078;-56
2022/08/25 10:03:32;;;;;;;47.40;12.25;;;26.60;99.90;;;;;;5071669;28;20035;-55
2022/08/25 10:06:05;;;;;;;37.33;14.40;;;26.50;99.90;;;;;;5071604;28;20355;-52
2022/08/25 10:08:56;;;;;;;51.53;15.18;;;26.10;99.90;;;;;;5071533;28;20040;-56
2022/08/25 10:11:42;;;;;;;48.28;13.75;;;26.10;99.90;;;;;;5071569;28;20109;-55
2022/08/25 10:14:25;;;;;;;29.23;13.15;;;25.90;99.90;;;;;;5071658;28;20475;-55
2022/08/25 10:16:53;;;;;;;40.25;12.45;;;26.10;99.90;;;;;;5071738;28;20128;-56
2022/08/25 10:19:25;;;;;;;38.58;13.68;;;26.10;99.90;;;;;;5071349;28;20032;-55
2022/08/25 10:22:05;;;;;;;40.90;12.23;;;26.00;99.90;;;;;;5071113;28;20032;-56
2022/08/25 10:24:31;;;;;;;53.15;14.05;;;26.10;99.90;;;;;;5070754;28;20418;-56
2022/08/25 10:27:04;;;;;;;42.47;13.23;;;26.30;99.90;;;;;;5070987;28;20432;-55
2022/08/25 10:29:35;;;;;;;46.13;13.73;;;26.80;99.90;;;;;;5070711;28;20020;-56
2022/08/25 10:32:07;;;;;;;37.33;13.32;;;27.20;99.90;;;;;;5069483;28;20028;-54
2022/08/25 10:34:51;;;;;;;42.33;12.50;;;27.30;99.70;;;;;;5070828;28;20083;-54
2022/08/25 10:37:17;;;;;;;35.65;12.57;;;27.80;98.90;;;;;;5070995;28;20036;-56
2022/08/25 10:39:51;;;;;;;54.78;15.38;;;27.30;99.10;;;;;;5071589;28;20033;-55
2022/08/25 10:42:28;;;;;;;55.35;15.68;;;27.30;99.50;;;;;;5072218;28;20737;-53
2022/08/25 10:48:06;;;;;;;34.22;14.05;;;27.20;99.40;;;;;;5091507;28;20428;-56
2022/08/25 10:50:42;;;;;;;38.05;16.20;;;27.50;99.40;;;;;;5071245;28;20063;-55
2022/08/25 10:53:27;;;;;;;42.90;14.20;;;27.30;98.70;;;;;;5071147;28;20468;-56
2022/08/25 10:56:16;;;;;;;36.35;13.23;;;27.20;99.10;;;;;;5078498;28;20025;-55
2022/08/25 10:58:41;;;;;;;42.78;13.65;;;27.10;98.80;;;;;;5069569;28;20313;-55
2022/08/25 11:04:42;;;;;;;33.70;13.60;;;27.10;99.30;;;;;;5075231;28;20035;-55
2022/08/25 11:07:26;;;;;;;40.72;14.05;;;27.20;99.20;;;;;;5075086;28;20059;-55
2022/08/25 11:09:56;;;;;;;40.17;13.90;;;27.10;99.30;;;;;;5075324;28;20028;-52
2022/08/25 11:12:44;;;;;;;36.65;15.15;;;27.00;99.40;;;;;;5074035;28;20041;-53
2022/08/25 11:15:18;;;;;;;34.25;13.68;;;27.10;99.30;;;;;;5084439;28;20114;-52
2022/08/25 11:17:57;;;;;;;29.75;12.07;;;27.00;99.20;;;;;;5095556;28;20016;-53
2022/08/25 11:20:32;;;;;;;32.03;13.32;;;26.90;99.40;;;;;;5095432;28;20469;-53
2022/08/25 11:23:20;;;;;;;32.92;12.90;;;26.80;99.40;;;;;;5094755;28;20704;-54
2022/08/25 11:25:51;;;;;;;31.15;13.05;;;27.00;99.50;;;;;;5079614;28;20376;-56
2022/08/25 11:28:29;;;;;;;57.70;12.70;;;27.30;99.40;;;;;;5073364;28;20142;-55
2022/08/25 11:30:58;;;;;;;44.33;13.90;;;27.70;97.70;;;;;;5072748;28;20033;-55
2022/08/25 11:33:25;;;;;;;34.08;13.30;;;28.00;97.00;;;;;;5072875;28;20036;-53
2022/08/25 11:36:02;;;;;;;38.30;12.70;;;28.70;97.00;;;;;;5087643;28;20031;-55
2022/08/25 11:38:46;;;;;;;28.52;11.93;;;29.40;96.50;;;;;;5093297;28;20107;-52
2022/08/25 11:41:18;;;;;;;37.45;12.38;;;30.20;95.20;;;;;;5094231;28;20020;-55
2022/08/25 11:44:05;;;;;;;37.75;13.45;;;30.10;94.80;;;;;;5094843;28;20030;-53
2022/08/25 11:46:52;;;;;;;34.65;12.38;;;29.90;94.50;;;;;;5074841;28;20115;-56
2022/08/25 11:49:27;;;;;;;33.00;11.90;;;29.70;94.10;;;;;;5074631;28;20029;-54
2022/08/25 11:51:53;;;;;;;38.22;12.07;;;29.60;94.60;;;;;;5074537;28;20107;-55
2022/08/25 11:54:33;;;;;;;39.78;13.43;;;29.80;94.20;;;;;;5075600;28;20112;-53
2022/08/25 11:57:16;;;;;;;26.83;11.52;;;29.50;94.80;;;;;;5074516;28;20051;-52
2022/08/25 11:59:56;;;;;;;46.80;12.73;;;28.70;95.70;;;;;;5074571;28;20020;-54
2022/08/25 12:02:42;;;;;;;34.80;12.13;;;28.70;96.30;;;;;;5074493;28;20021;-55
2022/08/25 12:05:10;;;;;;;24.75;11.38;;;29.40;94.70;;;;;;5083390;28;20450;-52
2022/08/25 12:11:04;;;;;;;45.75;12.20;;;29.60;94.90;;;;;;5094623;28;20038;-52
2022/08/25 12:13:46;;;;;;;35.83;10.73;;;29.90;94.00;;;;;;5093968;28;20398;-55
2022/08/25 12:16:41;;;;;;;32.42;11.48;;;30.00;93.00;;;;;;5075816;28;20087;-54
2022/08/25 12:19:28;;;;;;;28.55;10.90;;;30.40;93.10;;;;;;5074119;28;20025;-55
2022/08/25 12:22:17;;;;;;;21.63;10.40;;;30.40;92.80;;;;;;5072786;28;20555;-52
2022/08/25 12:24:43;;;;;;;31.77;11.57;;;30.00;92.90;;;;;;5071896;28;20101;-55
2022/08/25 12:27:26;;;;;;;24.30;11.07;;;29.70;93.40;;;;;;5094311;28;20032;-55
2022/08/25 12:29:56;;;;;;;26.25;10.95;;;30.00;93.70;;;;;;5083236;28;20020;-56
2022/08/25 12:32:38;;;;;;;34.67;11.18;;;30.40;93.10;;;;;;5073624;28;20036;-52
2022/08/25 12:35:28;;;;;;;31.17;10.27;;;30.70;92.30;;;;;;5073655;28;20025;-56
2022/08/25 12:38:09;;;;;;;27.73;9.57;;;30.80;91.90;;;;;;5074983;28;20043;-52
2022/08/25 12:40:35;;;;;;;33.25;10.65;;;30.60;91.50;;;;;;5073922;28;20052;-53
2022/08/25 12:43:30;;;;;;;31.80;10.35;;;31.10;91.90;;;;;;5073507;28;20560;-56
2022/08/25 12:46:19;;;;;;;27.73;10.55;;;31.50;90.70;;;;;;5082724;28;20046;-53
2022/08/25 12:48:56;;;;;;;37.90;10.05;;;31.30;91.50;;;;;;5076971;28;20032;-54
2022/08/25 12:51:39;;;;;;;19.95;9.48;;;31.80;91.50;;;;;;5093527;28;20030;-55
2022/08/25 12:54:11;;;;;;;25.33;8.88;;;31.90;91.30;;;;;;5094008;28;20108;-55
2022/08/25 12:56:43;;;;;;;24.65;9.10;;;32.10;89.20;;;;;;5053539;28;20416;-55
2022/08/25 12:59:18;;;;;;;18.77;7.47;;;31.90;88.80;;;;;;5052097;28;20017;-55